Time;durP1;ratioP1;P1;durP2;ratioP2;P2;SDS_P1;SDS_P2;PMS_P1;PMS_P2;Temp;Humidity;BMP_temperature;BMP_pressure;BME280_temperature;BME280_humidity;BME280_pressure;Samples;Min_cycle;Max_cycle;Signal;HPM_P1;HPM_P2
2022/11/26 00:00:29;;;;;;;6.80;5.07;;;8.00;96.60;;;;;;5094565;28;20411;-46
2022/11/26 00:02:54;;;;;;;7.63;5.60;;;8.00;96.60;;;;;;5095632;28;20415;-45
2022/11/26 00:05:21;;;;;;;8.53;5.30;;;8.00;96.70;;;;;;5094924;28;20414;-45
2022/11/26 00:07:57;;;;;;;7.83;5.00;;;8.00;96.70;;;;;;5095822;28;20184;-47
2022/11/26 00:10:28;;;;;;;7.43;5.67;;;8.00;96.70;;;;;;5094417;28;20536;-47
2022/11/26 00:12:55;;;;;;;5.90;5.00;;;8.00;96.80;;;;;;5096003;28;20414;-45
2022/11/26 00:15:24;;;;;;;7.00;4.73;;;7.90;96.70;;;;;;5095303;28;20421;-45
2022/11/26 00:17:51;;;;;;;7.30;5.03;;;8.00;96.80;;;;;;5094741;28;20454;-45
2022/11/26 00:20:17;;;;;;;6.43;4.70;;;7.90;96.70;;;;;;5094629;28;20496;-46
2022/11/26 00:22:46;;;;;;;7.43;4.70;;;7.90;96.70;;;;;;5094955;28;20411;-46
2022/11/26 00:25:20;;;;;;;7.27;4.90;;;7.90;96.70;;;;;;5095913;28;20446;-45
2022/11/26 00:27:46;;;;;;;6.73;4.90;;;7.90;96.80;;;;;;5097534;28;20494;-45
2022/11/26 00:30:16;;;;;;;7.73;5.70;;;7.80;96.80;;;;;;5097543;28;20812;-44
2022/11/26 00:32:41;;;;;;;6.60;5.17;;;7.80;96.80;;;;;;5097405;28;20491;-45
2022/11/26 00:35:07;;;;;;;7.93;5.57;;;7.80;96.80;;;;;;5097123;28;20693;-44
2022/11/26 00:37:44;;;;;;;9.07;6.63;;;7.80;96.80;;;;;;5079792;28;20486;-44
2022/11/26 00:40:20;;;;;;;9.87;5.00;;;7.80;96.80;;;;;;5095315;28;20267;-45
2022/11/26 00:42:45;;;;;;;6.37;5.03;;;7.80;96.90;;;;;;5096360;28;20471;-45
2022/11/26 00:45:25;;;;;;;8.23;5.07;;;7.80;96.90;;;;;;5096068;28;20438;-45
2022/11/26 00:47:51;;;;;;;8.83;5.30;;;7.70;97.10;;;;;;5096939;28;20204;-45
2022/11/26 00:50:20;;;;;;;6.50;4.77;;;7.70;96.80;;;;;;5096892;28;20468;-47
2022/11/26 00:52:48;;;;;;;5.83;4.90;;;7.70;96.80;;;;;;5097941;28;20493;-43
2022/11/26 00:55:31;;;;;;;9.50;5.37;;;7.70;96.80;;;;;;5097321;28;20529;-46
2022/11/26 00:57:59;;;;;;;7.23;4.03;;;7.70;96.80;;;;;;5096012;28;20490;-47
2022/11/26 01:00:28;;;;;;;5.60;4.40;;;7.70;96.80;;;;;;5097764;28;20817;-45
2022/11/26 01:02:54;;;;;;;5.60;4.23;;;7.70;96.90;;;;;;5097114;28;20929;-45
2022/11/26 01:05:21;;;;;;;9.40;4.80;;;7.60;96.90;;;;;;5095149;28;20509;-47
2022/11/26 01:07:47;;;;;;;11.93;5.10;;;7.70;96.90;;;;;;5095577;28;20433;-44
2022/11/26 01:10:27;;;;;;;5.93;4.00;;;7.70;96.90;;;;;;5095236;28;20418;-44
2022/11/26 01:12:54;;;;;;;6.07;4.40;;;7.60;96.90;;;;;;5095785;28;20238;-48
2022/11/26 01:15:22;;;;;;;7.80;3.90;;;7.60;96.90;;;;;;5094884;28;20517;-44
2022/11/26 01:17:47;;;;;;;6.63;4.40;;;7.60;96.90;;;;;;5095034;28;20457;-45
2022/11/26 01:20:28;;;;;;;8.40;4.37;;;7.60;96.90;;;;;;5095942;28;20423;-46
2022/11/26 01:22:55;;;;;;;5.03;3.77;;;7.70;97.00;;;;;;5095593;28;20186;-44
2022/11/26 01:25:21;;;;;;;7.10;4.60;;;7.60;97.00;;;;;;5094652;28;20521;-47
2022/11/26 01:27:47;;;;;;;6.60;3.73;;;7.70;97.10;;;;;;5095393;28;20414;-44
2022/11/26 01:30:23;;;;;;;6.73;3.57;;;7.70;97.20;;;;;;5094638;28;20441;-44
2022/11/26 01:32:49;;;;;;;6.60;3.50;;;7.70;97.20;;;;;;5095103;28;20249;-45
2022/11/26 01:35:16;;;;;;;5.07;3.80;;;7.70;97.30;;;;;;5095733;28;20422;-45
2022/11/26 01:37:43;;;;;;;7.03;3.43;;;7.70;97.30;;;;;;5095872;28;20531;-46
2022/11/26 01:40:24;;;;;;;7.60;4.17;;;7.70;97.40;;;;;;5078815;28;20582;-45
2022/11/26 01:42:55;;;;;;;5.43;3.90;;;7.70;97.40;;;;;;5096720;28;20429;-45
2022/11/26 01:45:22;;;;;;;4.90;3.60;;;7.60;97.30;;;;;;5095904;28;20419;-45
2022/11/26 01:47:49;;;;;;;5.90;3.73;;;7.60;97.30;;;;;;5096997;28;20419;-46
2022/11/26 01:50:29;;;;;;;4.93;4.43;;;7.60;97.30;;;;;;5095235;28;20460;-46
2022/11/26 01:52:58;;;;;;;6.90;4.37;;;7.60;97.30;;;;;;5096876;28;20432;-46
2022/11/26 01:55:26;;;;;;;9.90;5.87;;;7.50;97.30;;;;;;5095971;28;20429;-44
2022/11/26 01:57:52;;;;;;;10.13;5.27;;;7.50;97.40;;;;;;5096426;28;20537;-46
2022/11/26 02:00:17;;;;;;;6.30;3.80;;;7.50;97.40;;;;;;5098836;28;20521;-45
2022/11/26 02:02:44;;;;;;;5.60;3.97;;;7.40;97.40;;;;;;5100954;28;20260;-48
2022/11/26 02:05:16;;;;;;;7.17;4.07;;;7.40;97.70;;;;;;5099319;28;20196;-46
2022/11/26 02:07:42;;;;;;;7.17;3.90;;;7.40;97.40;;;;;;5099340;28;20418;-45
2022/11/26 02:10:08;;;;;;;7.00;5.10;;;7.40;97.40;;;;;;5099482;28;20839;-46
2022/11/26 02:12:34;;;;;;;4.60;3.40;;;7.30;97.30;;;;;;5100482;28;20192;-44
2022/11/26 02:15:00;;;;;;;5.33;3.20;;;7.30;97.30;;;;;;5099061;28;20434;-45
2022/11/26 02:17:26;;;;;;;7.30;4.00;;;7.30;97.30;;;;;;5097682;28;20461;-44
2022/11/26 02:20:30;;;;;;;8.03;4.40;;;7.20;97.20;;;;;;5097345;28;20523;-46
2022/11/26 02:23:14;;;;;;;5.13;3.80;;;7.20;97.20;;;;;;5075956;28;20215;-45
2022/11/26 02:26:10;;;;;;;7.63;4.27;;;7.10;97.10;;;;;;5077749;28;20426;-45
2022/11/26 02:32:11;;;;;;;5.60;3.83;;;7.00;97.00;;;;;;5099009;28;20684;-45
2022/11/26 02:34:46;;;;;;;5.77;4.10;;;7.00;97.00;;;;;;5098310;28;20421;-43
2022/11/26 02:37:28;;;;;;;7.73;3.67;;;6.90;96.90;;;;;;5097759;28;20550;-45
2022/11/26 02:39:56;;;;;;;4.90;3.60;;;6.90;97.00;;;;;;5097932;28;20433;-43
2022/11/26 02:42:29;;;;;;;9.00;3.23;;;6.80;96.90;;;;;;5098734;28;20444;-44
2022/11/26 02:44:59;;;;;;;6.33;3.80;;;6.80;96.90;;;;;;5097637;28;20425;-46
2022/11/26 02:47:26;;;;;;;5.30;3.00;;;6.80;97.00;;;;;;5097437;28;20426;-45
2022/11/26 02:49:55;;;;;;;5.00;3.40;;;6.80;96.90;;;;;;5096676;28;20821;-43
2022/11/26 02:52:20;;;;;;;7.47;3.70;;;6.80;97.00;;;;;;5097195;28;20469;-44
2022/11/26 02:54:48;;;;;;;4.20;3.30;;;6.80;97.00;;;;;;5099081;28;20450;-44
2022/11/26 02:57:15;;;;;;;3.97;3.10;;;6.80;97.50;;;;;;5098718;28;20791;-44
2022/11/26 02:59:41;;;;;;;6.37;3.53;;;6.80;97.30;;;;;;5098415;28;20433;-45
2022/11/26 03:02:15;;;;;;;8.40;3.97;;;6.80;97.40;;;;;;5099034;28;20410;-44
2022/11/26 03:04:45;;;;;;;7.27;3.43;;;6.80;97.50;;;;;;5099276;28;20428;-47
2022/11/26 03:07:13;;;;;;;8.73;3.13;;;6.80;97.60;;;;;;5097421;28;20418;-48
2022/11/26 03:09:59;;;;;;;6.10;3.40;;;6.80;97.60;;;;;;5097760;28;20529;-46
2022/11/26 03:12:26;;;;;;;4.70;3.23;;;6.80;97.70;;;;;;5098764;28;20414;-44
2022/11/26 03:14:52;;;;;;;4.10;3.00;;;6.90;97.80;;;;;;5099548;28;20423;-43
2022/11/26 03:17:18;;;;;;;5.70;3.70;;;6.90;97.80;;;;;;5098938;28;20470;-44
2022/11/26 03:19:45;;;;;;;5.23;3.43;;;6.90;97.90;;;;;;5099088;28;20220;-44
2022/11/26 03:22:12;;;;;;;6.00;3.27;;;6.90;97.90;;;;;;5098307;28;20800;-44
2022/11/26 03:24:37;;;;;;;8.20;3.60;;;6.90;97.90;;;;;;5098511;28;20728;-46
2022/11/26 03:27:03;;;;;;;5.50;3.40;;;6.90;97.90;;;;;;5097747;28;20425;-44
2022/11/26 03:29:29;;;;;;;4.23;3.30;;;6.90;97.90;;;;;;5098805;28;20426;-46
2022/11/26 03:31:55;;;;;;;5.67;3.67;;;6.90;98.00;;;;;;5098595;28;20429;-44
2022/11/26 03:34:20;;;;;;;8.67;4.23;;;6.90;98.00;;;;;;5098571;28;20185;-46
2022/11/26 03:36:46;;;;;;;6.07;3.60;;;6.90;98.00;;;;;;5098459;28;20271;-45
2022/11/26 03:39:11;;;;;;;7.30;3.50;;;6.90;98.00;;;;;;5098975;28;20182;-44
2022/11/26 03:41:37;;;;;;;5.50;3.87;;;6.90;98.00;;;;;;5098615;28;20203;-45
2022/11/26 03:44:03;;;;;;;5.47;3.50;;;6.80;97.90;;;;;;5098827;28;20180;-44
2022/11/26 03:46:29;;;;;;;5.50;3.47;;;6.80;97.80;;;;;;5098596;28;20780;-44
2022/11/26 03:48:54;;;;;;;10.13;3.27;;;6.80;98.10;;;;;;5097560;28;20184;-44
2022/11/26 03:51:20;;;;;;;5.67;3.60;;;6.80;97.80;;;;;;5098298;28;20176;-46
2022/11/26 03:53:46;;;;;;;5.30;2.90;;;6.80;97.80;;;;;;5097659;28;20195;-47
2022/11/26 03:56:11;;;;;;;6.33;3.70;;;6.80;97.80;;;;;;5097618;28;20216;-46
2022/11/26 03:58:37;;;;;;;7.20;3.33;;;6.70;97.70;;;;;;5097808;28;20882;-46
2022/11/26 04:01:10;;;;;;;5.23;3.53;;;6.70;97.70;;;;;;5097865;28;20184;-44
2022/11/26 04:03:36;;;;;;;5.20;3.50;;;6.70;97.70;;;;;;5098257;28;20259;-45
2022/11/26 04:06:02;;;;;;;3.40;3.07;;;6.70;97.60;;;;;;5096944;28;20511;-44
2022/11/26 04:08:28;;;;;;;5.00;3.77;;;6.70;97.70;;;;;;5098056;28;20418;-45
2022/11/26 04:10:54;;;;;;;5.80;3.90;;;6.70;97.60;;;;;;5098030;28;20828;-47
2022/11/26 04:13:19;;;;;;;4.90;3.80;;;6.70;97.60;;;;;;5097669;28;20176;-44
2022/11/26 04:15:45;;;;;;;7.40;4.17;;;6.70;97.70;;;;;;5097560;28;20183;-46
2022/11/26 04:18:10;;;;;;;4.70;3.80;;;6.70;97.70;;;;;;5097161;28;20216;-46
2022/11/26 04:20:36;;;;;;;7.93;3.77;;;6.70;97.70;;;;;;5097903;28;20427;-43
2022/11/26 04:23:01;;;;;;;5.80;4.43;;;6.70;97.70;;;;;;5096114;28;20267;-44
2022/11/26 04:25:27;;;;;;;5.20;3.90;;;6.70;97.70;;;;;;5095100;28;20176;-47
2022/11/26 04:27:53;;;;;;;7.30;3.90;;;6.70;97.70;;;;;;5094758;28;20213;-44
2022/11/26 04:30:18;;;;;;;8.90;4.37;;;6.70;97.70;;;;;;5096489;28;20555;-46
2022/11/26 04:32:44;;;;;;;7.47;4.33;;;6.70;97.70;;;;;;5097556;28;20175;-44
2022/11/26 04:35:09;;;;;;;4.53;3.10;;;6.70;97.70;;;;;;5096798;28;20172;-43
2022/11/26 04:37:35;;;;;;;5.33;3.50;;;6.70;97.70;;;;;;5098007;28;20212;-44
2022/11/26 04:40:00;;;;;;;7.23;3.93;;;6.70;97.70;;;;;;5097696;28;20267;-44
2022/11/26 04:42:26;;;;;;;9.80;3.70;;;6.60;97.70;;;;;;5097658;28;20265;-46
2022/11/26 04:44:52;;;;;;;8.63;3.77;;;6.60;97.60;;;;;;5097764;28;20642;-45
2022/11/26 04:47:17;;;;;;;4.60;3.77;;;6.60;97.70;;;;;;5097388;28;20179;-48
2022/11/26 04:49:43;;;;;;;7.43;3.80;;;6.70;97.70;;;;;;5096295;28;20180;-44
2022/11/26 04:52:09;;;;;;;4.87;4.10;;;6.60;97.60;;;;;;5096547;28;20728;-47
2022/11/26 04:54:34;;;;;;;7.87;3.70;;;6.60;97.60;;;;;;5097012;28;20180;-45
2022/11/26 04:57:00;;;;;;;5.00;3.47;;;6.60;97.60;;;;;;5096207;28;20689;-45
2022/11/26 04:59:26;;;;;;;7.33;3.20;;;6.50;97.50;;;;;;5094886;28;20176;-44
2022/11/26 05:01:51;;;;;;;5.80;3.57;;;6.50;97.50;;;;;;5095140;28;20195;-43
2022/11/26 05:04:17;;;;;;;6.30;3.93;;;6.40;97.40;;;;;;5094086;28;20181;-46
2022/11/26 05:06:42;;;;;;;4.97;3.27;;;6.40;97.40;;;;;;5093015;28;20177;-43
2022/11/26 05:09:08;;;;;;;6.30;3.73;;;6.40;97.30;;;;;;5093862;28;20246;-45
2022/11/26 05:11:34;;;;;;;5.57;3.50;;;6.30;97.20;;;;;;5095187;28;20423;-45
2022/11/26 05:13:59;;;;;;;7.07;3.20;;;6.30;97.20;;;;;;5096589;28;20276;-44
2022/11/26 05:16:25;;;;;;;5.37;3.83;;;6.30;97.20;;;;;;5096216;28;20196;-45
2022/11/26 05:18:51;;;;;;;6.77;4.00;;;6.30;97.20;;;;;;5097301;28;20558;-45
2022/11/26 05:21:16;;;;;;;5.37;3.07;;;6.20;97.10;;;;;;5096918;28;20275;-45
2022/11/26 05:23:42;;;;;;;6.00;3.63;;;6.20;97.10;;;;;;5096272;28;20173;-44
2022/11/26 05:26:07;;;;;;;5.93;3.50;;;6.20;97.10;;;;;;5095668;28;20191;-44
2022/11/26 05:28:33;;;;;;;8.83;4.00;;;6.20;97.10;;;;;;5093040;28;20558;-44
2022/11/26 05:31:00;;;;;;;4.47;3.50;;;6.10;97.10;;;;;;5094531;28;20172;-43
2022/11/26 05:33:25;;;;;;;6.43;4.33;;;6.20;97.10;;;;;;5095104;28;20508;-44
2022/11/26 05:35:51;;;;;;;5.93;3.40;;;6.10;97.10;;;;;;5097625;28;20422;-44
2022/11/26 05:38:17;;;;;;;4.10;3.47;;;6.10;97.10;;;;;;5098195;28;20214;-45
2022/11/26 05:40:42;;;;;;;5.30;3.43;;;6.10;97.10;;;;;;5098574;28;20177;-44
2022/11/26 05:43:08;;;;;;;7.17;4.17;;;6.10;97.10;;;;;;5100056;28;20259;-43
2022/11/26 05:45:33;;;;;;;7.23;4.30;;;6.00;97.10;;;;;;5100740;28;20184;-45
2022/11/26 05:47:59;;;;;;;4.60;3.10;;;6.00;97.00;;;;;;5100538;28;20584;-44
2022/11/26 05:50:25;;;;;;;4.93;3.57;;;5.90;97.00;;;;;;5100778;28;20316;-47
2022/11/26 05:52:50;;;;;;;4.73;3.40;;;5.90;96.90;;;;;;5098351;28;20308;-44
2022/11/26 05:55:16;;;;;;;5.50;3.93;;;5.90;96.90;;;;;;5098394;28;20204;-43
2022/11/26 05:57:42;;;;;;;6.23;3.67;;;5.80;96.80;;;;;;5099545;28;20201;-44
2022/11/26 06:00:09;;;;;;;4.53;3.30;;;5.80;96.70;;;;;;5098411;28;20422;-46
2022/11/26 06:02:35;;;;;;;5.67;3.60;;;5.80;96.70;;;;;;5096251;28;20200;-44
2022/11/26 06:05:01;;;;;;;5.20;3.60;;;5.70;96.60;;;;;;5098628;28;20674;-45
2022/11/26 06:07:26;;;;;;;8.53;3.70;;;5.70;96.50;;;;;;5097432;28;20478;-44
2022/11/26 06:09:53;;;;;;;4.73;3.67;;;5.60;96.40;;;;;;5098926;28;20458;-46
2022/11/26 06:12:18;;;;;;;8.10;5.30;;;5.50;96.30;;;;;;5098178;28;20191;-45
2022/11/26 06:14:44;;;;;;;6.20;3.40;;;5.40;96.30;;;;;;5098612;28;20422;-42
2022/11/26 06:17:10;;;;;;;7.67;4.57;;;5.30;96.30;;;;;;5097751;28;20273;-45
2022/11/26 06:19:35;;;;;;;7.27;4.33;;;5.30;96.30;;;;;;5097320;28;20183;-43
2022/11/26 06:22:01;;;;;;;5.33;4.47;;;5.20;96.40;;;;;;5095526;28;20419;-46
2022/11/26 06:24:27;;;;;;;5.30;4.63;;;5.10;96.40;;;;;;5097297;28;20216;-43
2022/11/26 06:26:52;;;;;;;4.50;3.93;;;5.00;96.40;;;;;;5095355;28;20187;-43
2022/11/26 06:29:18;;;;;;;7.13;3.93;;;4.90;96.50;;;;;;5095082;28;20263;-43
2022/11/26 06:31:43;;;;;;;5.93;3.77;;;4.90;96.70;;;;;;5094821;28;20438;-45
2022/11/26 06:34:09;;;;;;;6.40;4.57;;;4.80;96.70;;;;;;5094194;28;20184;-43
2022/11/26 06:36:34;;;;;;;7.53;5.30;;;4.80;96.70;;;;;;5093900;28;20413;-44
2022/11/26 06:39:00;;;;;;;7.27;4.40;;;4.70;96.70;;;;;;5094405;28;20360;-47
2022/11/26 06:41:26;;;;;;;4.97;4.47;;;4.70;96.70;;;;;;5097126;28;20248;-48
2022/11/26 06:43:51;;;;;;;4.83;4.17;;;4.70;96.70;;;;;;5098136;28;20180;-45
2022/11/26 06:46:17;;;;;;;6.87;4.73;;;4.70;96.80;;;;;;5097348;28;20184;-43
2022/11/26 06:48:43;;;;;;;5.43;4.30;;;4.70;96.80;;;;;;5098403;28;20181;-45
2022/11/26 06:51:13;;;;;;;7.93;3.73;;;4.60;96.80;;;;;;5098350;28;20188;-43
2022/11/26 06:53:39;;;;;;;5.33;4.83;;;4.60;96.90;;;;;;5098880;28;20199;-42
2022/11/26 06:56:07;;;;;;;4.35;3.85;;;4.60;97.20;;;;;;5097706;28;20480;-46
2022/11/26 06:58:33;;;;;;;4.97;4.23;;;4.60;96.80;;;;;;5098078;28;20434;-42
2022/11/26 07:00:58;;;;;;;6.27;4.33;;;4.60;96.80;;;;;;5096452;28;20468;-47
2022/11/26 07:03:25;;;;;;;8.73;4.43;;;4.60;96.80;;;;;;5097615;28;20454;-43
2022/11/26 07:05:50;;;;;;;5.90;4.20;;;4.60;96.70;;;;;;5097227;28;20184;-44
2022/11/26 07:08:16;;;;;;;7.70;4.63;;;4.70;96.70;;;;;;5096714;28;20912;-44
2022/11/26 07:10:42;;;;;;;4.80;3.60;;;4.70;96.60;;;;;;5096403;28;20188;-43
2022/11/26 07:13:07;;;;;;;4.73;4.33;;;4.70;96.50;;;;;;5097383;28;20172;-45
2022/11/26 07:15:33;;;;;;;5.33;4.70;;;4.70;96.40;;;;;;5096024;28;20188;-44
2022/11/26 07:17:59;;;;;;;6.03;4.13;;;4.80;96.40;;;;;;5094599;28;20211;-46
2022/11/26 07:20:25;;;;;;;8.40;4.07;;;4.80;96.40;;;;;;5095740;28;20184;-42
2022/11/26 07:22:52;;;;;;;9.07;4.50;;;4.90;96.30;;;;;;5097320;28;20176;-45
2022/11/26 07:25:17;;;;;;;5.67;3.60;;;5.00;96.30;;;;;;5094770;28;20515;-44
2022/11/26 07:27:44;;;;;;;6.83;4.23;;;5.20;96.30;;;;;;5096224;28;20414;-44
2022/11/26 07:30:10;;;;;;;5.53;4.03;;;5.40;96.10;;;;;;5093749;28;20180;-45
2022/11/26 07:32:37;;;;;;;4.30;3.90;;;5.70;95.90;;;;;;5096104;28;20686;-44
2022/11/26 07:35:03;;;;;;;5.53;4.43;;;5.90;95.60;;;;;;5094187;28;20437;-46
2022/11/26 07:37:29;;;;;;;7.23;4.93;;;6.20;95.30;;;;;;5095364;28;20481;-44
2022/11/26 07:39:54;;;;;;;5.50;4.97;;;6.50;95.00;;;;;;5095226;28;20427;-45
2022/11/26 07:42:20;;;;;;;5.43;4.93;;;6.90;94.60;;;;;;5097405;28;20594;-45
2022/11/26 07:44:45;;;;;;;7.57;4.50;;;7.20;94.00;;;;;;5096473;28;20181;-43
2022/11/26 07:47:11;;;;;;;5.70;5.10;;;7.30;93.30;;;;;;5096057;28;20451;-44
2022/11/26 07:49:37;;;;;;;7.27;5.47;;;7.30;92.90;;;;;;5095643;28;20288;-48
2022/11/26 07:52:02;;;;;;;9.70;7.53;;;7.30;92.80;;;;;;5096812;28;20333;-44
2022/11/26 07:54:28;;;;;;;5.93;5.30;;;7.40;93.20;;;;;;5095854;28;20172;-45
2022/11/26 07:56:54;;;;;;;6.57;5.20;;;7.60;93.20;;;;;;5094038;28;20702;-45
2022/11/26 07:59:19;;;;;;;8.27;5.43;;;7.80;92.90;;;;;;5095352;28;20180;-43
2022/11/26 08:01:45;;;;;;;6.77;5.53;;;7.90;92.50;;;;;;5096700;28;20329;-45
2022/11/26 08:04:10;;;;;;;5.83;5.10;;;7.90;92.30;;;;;;5096122;28;20554;-45
2022/11/26 08:06:36;;;;;;;7.30;5.67;;;7.90;92.30;;;;;;5096343;28;20188;-44
2022/11/26 08:09:03;;;;;;;5.50;5.00;;;8.20;92.80;;;;;;5095379;28;20192;-44
2022/11/26 08:11:30;;;;;;;5.40;4.90;;;8.80;92.70;;;;;;5094483;28;20267;-44
2022/11/26 08:13:58;;;;;;;7.50;4.97;;;9.20;91.70;;;;;;5094541;28;20430;-45
2022/11/26 08:16:24;;;;;;;5.93;4.93;;;9.40;91.00;;;;;;5095056;28;20454;-43
2022/11/26 08:18:57;;;;;;;10.03;6.30;;;9.50;90.70;;;;;;5093152;28;20522;-45
2022/11/26 08:21:22;;;;;;;5.93;5.37;;;9.40;90.60;;;;;;5095064;28;20179;-44
2022/11/26 08:23:48;;;;;;;8.80;5.60;;;9.20;90.80;;;;;;5095754;28;20513;-43
2022/11/26 08:26:15;;;;;;;7.00;5.93;;;9.20;91.20;;;;;;5096662;28;20191;-45
2022/11/26 08:28:42;;;;;;;7.83;5.33;;;9.10;91.50;;;;;;5095827;28;20191;-45
2022/11/26 08:31:09;;;;;;;6.40;5.70;;;9.20;91.80;;;;;;5096893;28;20414;-45
2022/11/26 08:33:35;;;;;;;6.80;6.03;;;9.30;92.10;;;;;;5096874;28;20840;-45
2022/11/26 08:36:01;;;;;;;8.30;6.27;;;9.90;92.70;;;;;;5097595;28;20442;-47
2022/11/26 08:38:28;;;;;;;8.00;6.17;;;10.60;91.30;;;;;;5097154;28;20538;-45
2022/11/26 08:40:53;;;;;;;10.43;6.87;;;11.00;90.30;;;;;;5094713;28;20421;-45
2022/11/26 08:43:20;;;;;;;6.80;6.10;;;11.20;89.50;;;;;;5095045;28;20430;-47
2022/11/26 08:45:57;;;;;;;9.40;6.77;;;11.70;89.70;;;;;;5092642;28;20192;-45
2022/11/26 08:48:24;;;;;;;6.63;5.67;;;12.80;88.70;;;;;;5074735;28;20451;-46
2022/11/26 08:50:50;;;;;;;5.30;4.70;;;13.90;85.80;;;;;;5072631;28;20637;-47
2022/11/26 08:53:16;;;;;;;5.10;4.17;;;15.00;82.20;;;;;;5071828;28;20910;-42
2022/11/26 08:55:41;;;;;;;7.50;4.27;;;16.20;78.90;;;;;;5075023;28;20495;-44
2022/11/26 08:58:07;;;;;;;5.43;4.83;;;17.30;73.80;;;;;;5074301;28;20289;-44
2022/11/26 09:00:33;;;;;;;7.00;4.27;;;18.20;69.50;;;;;;5074581;28;20590;-44
2022/11/26 09:02:59;;;;;;;6.13;4.13;;;19.20;65.10;;;;;;5074131;28;20177;-44
2022/11/26 09:05:25;;;;;;;4.83;4.10;;;20.10;61.40;;;;;;5073418;28;20562;-44
2022/11/26 09:07:50;;;;;;;5.63;4.00;;;21.00;58.70;;;;;;5075006;28;20420;-44
2022/11/26 09:10:16;;;;;;;5.00;4.50;;;21.70;55.90;;;;;;5071540;28;20191;-44
2022/11/26 09:12:42;;;;;;;5.87;5.20;;;22.40;54.30;;;;;;5073138;28;20506;-42
2022/11/26 09:15:08;;;;;;;6.80;5.43;;;23.10;52.40;;;;;;5073718;28;20177;-43
2022/11/26 09:17:34;;;;;;;4.83;4.33;;;23.70;50.50;;;;;;5071805;28;20217;-43
2022/11/26 09:19:59;;;;;;;4.90;3.90;;;24.40;49.40;;;;;;5072348;28;20500;-44
2022/11/26 09:22:25;;;;;;;5.80;3.80;;;25.10;48.00;;;;;;5074329;28;20255;-44
2022/11/26 09:24:51;;;;;;;5.10;3.73;;;25.90;46.50;;;;;;5074817;28;20267;-46
2022/11/26 09:27:16;;;;;;;3.37;2.57;;;26.60;44.80;;;;;;5075956;28;20177;-48
2022/11/26 09:29:42;;;;;;;6.33;2.43;;;27.30;45.40;;;;;;5073575;28;20192;-46
2022/11/26 09:32:08;;;;;;;4.23;2.50;;;28.00;46.70;;;;;;5074438;28;20177;-45
2022/11/26 09:34:34;;;;;;;5.90;2.33;;;28.90;45.90;;;;;;5075469;28;20290;-47
2022/11/26 09:37:00;;;;;;;2.77;2.00;;;29.60;44.40;;;;;;5073888;28;20880;-45
2022/11/26 09:39:26;;;;;;;3.37;2.47;;;30.30;42.70;;;;;;5056702;28;20596;-46
2022/11/26 09:42:07;;;;;;;4.30;2.70;;;31.00;40.70;;;;;;5074972;28;20196;-47
2022/11/26 09:44:51;;;;;;;5.53;2.97;;;31.60;39.10;;;;;;5074373;28;20666;-46
2022/11/26 09:47:24;;;;;;;4.57;2.60;;;32.20;37.80;;;;;;5073667;28;20411;-46
2022/11/26 09:50:11;;;;;;;3.97;2.33;;;32.70;36.50;;;;;;5073551;28;20407;-47
2022/11/26 09:52:50;;;;;;;8.20;2.90;;;33.30;35.70;;;;;;5074378;28;20420;-44
2022/11/26 09:55:23;;;;;;;4.00;2.90;;;33.90;34.50;;;;;;5072773;28;20481;-42
2022/11/26 09:57:58;;;;;;;6.97;2.83;;;34.50;33.30;;;;;;5073075;28;20453;-44
2022/11/26 10:00:30;;;;;;;6.60;2.67;;;35.00;32.40;;;;;;5071633;28;20484;-43
2022/11/26 10:02:57;;;;;;;5.90;3.13;;;35.40;31.40;;;;;;5068764;28;20425;-44
2022/11/26 10:05:45;;;;;;;3.30;2.80;;;35.90;30.50;;;;;;5071610;28;20442;-43
2022/11/26 10:08:48;;;;;;;5.10;3.10;;;36.20;30.00;;;;;;5071489;28;20478;-43
2022/11/26 10:11:51;;;;;;;7.60;2.87;;;36.50;29.30;;;;;;5073581;28;20424;-44
2022/11/26 10:14:39;;;;;;;3.83;2.63;;;36.40;30.50;;;;;;5072924;28;21149;-43
2022/11/26 10:17:17;;;;;;;6.57;3.00;;;36.30;30.00;;;;;;5055301;28;20428;-43
2022/11/26 10:19:50;;;;;;;6.60;2.73;;;36.00;29.90;;;;;;5070910;28;20423;-46
2022/11/26 10:22:26;;;;;;;6.77;3.03;;;35.60;30.40;;;;;;5074403;28;20410;-48
2022/11/26 10:24:52;;;;;;;4.23;2.20;;;35.40;31.00;;;;;;5076246;28;20430;-49
2022/11/26 10:27:19;;;;;;;5.50;2.93;;;35.10;30.50;;;;;;5074770;28;20480;-48
2022/11/26 10:29:53;;;;;;;3.80;2.47;;;34.90;31.30;;;;;;5075709;28;20930;-47
2022/11/26 10:32:37;;;;;;;3.70;2.87;;;34.60;30.00;;;;;;5076563;28;20402;-44
2022/11/26 10:35:04;;;;;;;7.63;3.40;;;34.40;30.50;;;;;;5076186;28;20419;-46
2022/11/26 10:37:29;;;;;;;7.03;2.50;;;34.40;29.60;;;;;;5075726;28;20431;-45
2022/11/26 10:40:20;;;;;;;6.67;3.10;;;34.40;30.00;;;;;;5074541;28;20856;-45
2022/11/26 10:43:04;;;;;;;6.43;4.33;;;34.50;30.30;;;;;;5076867;28;20452;-45
2022/11/26 10:45:44;;;;;;;7.67;4.30;;;34.90;29.10;;;;;;5073837;28;20491;-44
2022/11/26 10:48:23;;;;;;;6.43;3.80;;;35.40;29.40;;;;;;5074947;28;20736;-48
2022/11/26 10:51:12;;;;;;;4.90;3.30;;;35.90;29.60;;;;;;5072211;28;20423;-45
2022/11/26 10:53:57;;;;;;;4.07;2.60;;;36.40;28.20;;;;;;5064911;28;20440;-47
2022/11/26 10:56:45;;;;;;;5.60;3.40;;;36.40;27.90;;;;;;5073195;28;20471;-47
2022/11/26 10:59:20;;;;;;;6.20;3.13;;;36.10;28.00;;;;;;5073994;28;20713;-45
2022/11/26 11:01:47;;;;;;;4.93;3.00;;;36.60;27.90;;;;;;5076595;28;20428;-46
2022/11/26 11:04:26;;;;;;;4.73;2.70;;;37.50;27.70;;;;;;5088174;28;20460;-49
2022/11/26 11:06:56;;;;;;;3.83;3.07;;;38.40;27.70;;;;;;5092839;28;20587;-48
2022/11/26 11:09:35;;;;;;;5.77;3.20;;;37.60;27.00;;;;;;5075600;28;20432;-42
2022/11/26 11:12:14;;;;;;;4.83;2.80;;;35.70;27.40;;;;;;5095001;28;20423;-44
2022/11/26 11:14:40;;;;;;;4.70;2.60;;;33.50;28.10;;;;;;5093197;28;20479;-44
2022/11/26 11:17:10;;;;;;;6.90;2.87;;;31.70;28.90;;;;;;5094368;28;20414;-44
2022/11/26 11:19:35;;;;;;;5.17;3.00;;;31.20;29.40;;;;;;5092503;28;20431;-41
2022/11/26 11:22:03;;;;;;;5.50;3.77;;;31.10;29.30;;;;;;5094047;28;20426;-42
2022/11/26 11:24:28;;;;;;;5.20;3.10;;;30.70;29.40;;;;;;5094940;28;20589;-46
2022/11/26 11:27:01;;;;;;;7.53;3.50;;;31.20;29.20;;;;;;5094191;28;20445;-42
2022/11/26 11:29:35;;;;;;;5.83;2.70;;;30.80;29.20;;;;;;5095456;28;20204;-47
2022/11/26 11:32:04;;;;;;;5.77;3.47;;;31.10;29.40;;;;;;5093681;28;20418;-44
2022/11/26 11:34:32;;;;;;;8.10;2.90;;;32.30;28.90;;;;;;5095675;28;20397;-42
2022/11/26 11:37:13;;;;;;;3.60;2.33;;;32.50;28.60;;;;;;5095277;28;20500;-42
2022/11/26 11:39:39;;;;;;;4.23;2.23;;;33.30;28.30;;;;;;5093188;28;20408;-43
2022/11/26 11:42:27;;;;;;;3.83;2.60;;;34.60;27.90;;;;;;5095024;28;20491;-43
2022/11/26 11:44:52;;;;;;;3.97;2.43;;;35.60;27.20;;;;;;5079846;28;20425;-42
2022/11/26 11:47:30;;;;;;;5.63;2.50;;;36.40;26.60;;;;;;5095704;28;20480;-41
2022/11/26 11:50:31;;;;;;;6.67;2.80;;;35.40;26.40;;;;;;5098343;28;20172;-43
2022/11/26 11:53:15;;;;;;;23.80;4.00;;;34.90;26.60;;;;;;5094688;28;20471;-43
2022/11/26 11:56:08;;;;;;;15.10;3.90;;;35.90;26.50;;;;;;5098379;28;20440;-43
2022/11/26 11:59:01;;;;;;;9.83;3.60;;;37.10;26.30;;;;;;5098334;28;20409;-45
2022/11/26 12:01:45;;;;;;;14.20;3.77;;;38.60;25.80;;;;;;5096945;28;20474;-45
2022/11/26 12:04:20;;;;;;;18.70;4.53;;;39.80;25.20;;;;;;5096991;28;20619;-46
2022/11/26 12:07:00;;;;;;;6.13;2.80;;;40.60;25.30;;;;;;5097165;28;20468;-48
2022/11/26 12:09:32;;;;;;;6.37;3.77;;;40.90;26.30;;;;;;5096718;28;20862;-47
2022/11/26 12:12:23;;;;;;;5.10;2.47;;;40.60;25.70;;;;;;5095757;28;20410;-45
2022/11/26 12:14:49;;;;;;;6.23;2.60;;;40.60;25.90;;;;;;5095280;28;20745;-45
2022/11/26 12:17:38;;;;;;;8.23;3.50;;;40.60;26.40;;;;;;5096291;28;20522;-45
2022/11/26 12:20:16;;;;;;;8.80;3.20;;;40.80;25.60;;;;;;5096448;28;20449;-48
2022/11/26 12:23:02;;;;;;;7.50;2.83;;;40.50;25.20;;;;;;5094590;28;20696;-43
2022/11/26 12:25:34;;;;;;;4.70;2.03;;;39.50;25.20;;;;;;5090011;28;20442;-43
2022/11/26 12:28:30;;;;;;;3.93;2.27;;;39.20;24.70;;;;;;5093879;28;20566;-42
2022/11/26 12:31:14;;;;;;;5.90;2.73;;;38.30;24.90;;;;;;5093056;28;20410;-44
2022/11/26 12:33:49;;;;;;;7.20;3.63;;;37.70;24.90;;;;;;5093269;28;20824;-41
2022/11/26 12:36:39;;;;;;;3.77;2.50;;;37.70;25.10;;;;;;5093762;28;20431;-43
2022/11/26 12:39:27;;;;;;;5.23;2.87;;;37.90;25.00;;;;;;5094554;28;20421;-42
2022/11/26 12:41:59;;;;;;;4.77;2.43;;;36.80;25.10;;;;;;5092059;28;20819;-43
2022/11/26 12:44:39;;;;;;;4.10;2.30;;;35.30;25.70;;;;;;5092434;28;20519;-43
2022/11/26 12:47:10;;;;;;;3.13;1.90;;;35.20;26.10;;;;;;5091157;28;20474;-41
2022/11/26 12:49:59;;;;;;;5.47;2.90;;;36.20;25.90;;;;;;5081280;28;20435;-43
2022/11/26 12:52:42;;;;;;;5.10;3.00;;;37.60;25.40;;;;;;5085043;28;20436;-43
2022/11/26 12:55:20;;;;;;;5.20;2.70;;;38.90;24.80;;;;;;5094478;28;20429;-43
2022/11/26 12:58:03;;;;;;;3.73;2.30;;;40.20;24.40;;;;;;5090578;28;20462;-43
2022/11/26 13:00:34;;;;;;;3.60;2.20;;;41.10;24.10;;;;;;5075178;28;20497;-41
2022/11/26 13:02:59;;;;;;;3.43;3.13;;;41.90;23.70;;;;;;5073896;28;20481;-42
2022/11/26 13:05:54;;;;;;;3.60;2.13;;;42.20;23.10;;;;;;5077056;28;20438;-44
2022/11/26 13:08:36;;;;;;;2.87;2.40;;;42.40;22.90;;;;;;5080249;28;20249;-43
2022/11/26 13:11:04;;;;;;;3.17;2.53;;;42.60;22.80;;;;;;5093292;28;20424;-44